createdAt,value
2023-04-02T00:00:29.521Z,0.00
2023-04-02T00:01:29.437Z,0.00
2023-04-02T00:02:29.528Z,0.00
2023-04-02T00:03:29.430Z,0.00
2023-04-02T00:04:29.326Z,0.00
2023-04-02T00:05:29.337Z,0.00
2023-04-02T00:06:29.243Z,0.00
2023-04-02T00:07:29.204Z,0.00
2023-04-02T00:08:29.173Z,0.00
2023-04-02T00:09:29.136Z,0.00
2023-04-02T00:10:29.137Z,0.00
2023-04-02T00:11:29.131Z,0.00
2023-04-02T00:12:29.022Z,0.00
2023-04-02T00:13:28.979Z,0.00
2023-04-02T00:14:28.961Z,0.00
2023-04-02T00:15:28.913Z,0.00
2023-04-02T00:16:28.956Z,0.00
2023-04-02T00:17:28.848Z,0.00
2023-04-02T00:18:28.812Z,0.00
2023-04-02T00:19:28.762Z,0.00
2023-04-02T00:20:28.726Z,0.00
2023-04-02T00:21:28.686Z,0.00
2023-04-02T00:22:28.710Z,0.00
2023-04-02T00:23:28.622Z,0.00
2023-04-02T00:24:28.580Z,0.00
2023-04-02T00:25:28.563Z,0.00
2023-04-02T00:26:28.503Z,0.00
2023-04-02T00:27:28.475Z,0.00
2023-04-02T00:28:28.482Z,0.00
2023-04-02T00:29:28.401Z,0.00
2023-04-02T00:30:28.393Z,0.00
2023-04-02T00:31:28.337Z,0.00
2023-04-02T00:32:28.376Z,0.00
2023-04-02T00:33:28.248Z,0.00
2023-04-02T00:34:28.261Z,0.00
2023-04-02T00:35:28.234Z,0.00
2023-04-02T00:36:28.131Z,0.00
2023-04-02T00:37:28.197Z,0.00
2023-04-02T00:38:28.063Z,0.00
2023-04-02T00:39:28.028Z,0.00
2023-04-02T00:40:28.062Z,0.00
2023-04-02T00:41:27.953Z,0.00
2023-04-02T00:42:27.917Z,0.00
2023-04-02T00:43:27.873Z,0.00
2023-04-02T00:44:27.856Z,0.00
2023-04-02T00:45:27.798Z,0.00
2023-04-02T00:46:27.841Z,0.00
2023-04-02T00:47:27.765Z,0.00
2023-04-02T00:48:27.695Z,0.00
2023-04-02T00:49:27.649Z,0.00
2023-04-02T00:50:27.632Z,0.00
2023-04-02T00:51:27.578Z,0.00
2023-04-02T00:52:27.605Z,0.00
2023-04-02T00:53:27.497Z,0.00
2023-04-02T00:54:27.469Z,0.00
2023-04-02T00:55:27.444Z,0.00
2023-04-02T00:56:27.419Z,0.00
2023-04-02T00:57:27.367Z,0.00
2023-04-02T00:58:27.372Z,0.00
2023-04-02T00:59:27.277Z,0.00
2023-04-02T01:00:27.238Z,0.00
2023-04-02T01:01:27.280Z,0.00
2023-04-02T01:02:27.223Z,0.00
2023-04-02T01:03:27.213Z,0.00
2023-04-02T01:04:27.242Z,0.00
2023-04-02T01:05:27.049Z,0.00
2023-04-02T01:06:27.014Z,0.00
2023-04-02T01:07:26.991Z,0.00
2023-04-02T01:08:26.931Z,0.00
2023-04-02T01:09:26.897Z,0.00
2023-04-02T01:10:26.931Z,0.00
2023-04-02T01:11:26.823Z,0.00
2023-04-02T01:12:26.799Z,0.00
2023-04-02T01:13:26.751Z,0.00
2023-04-02T01:14:26.724Z,0.00
2023-04-02T01:15:26.703Z,0.00
2023-04-02T01:16:26.819Z,0.00
2023-04-02T01:17:26.632Z,0.00
2023-04-02T01:18:26.591Z,0.00
2023-04-02T01:19:26.523Z,0.00
2023-04-02T01:20:26.491Z,0.00
2023-04-02T01:21:26.448Z,0.00
2023-04-02T01:22:26.464Z,0.00
2023-04-02T01:23:26.377Z,0.00
2023-04-02T01:24:26.404Z,0.00
2023-04-02T01:25:26.344Z,0.00
2023-04-02T01:26:26.268Z,0.00
2023-04-02T01:27:26.226Z,0.00
2023-04-02T01:28:26.287Z,0.00
2023-04-02T01:29:26.164Z,0.00
2023-04-02T01:30:26.187Z,0.00
2023-04-02T01:31:26.163Z,0.00
2023-04-02T01:32:26.077Z,0.00
2023-04-02T01:33:26.017Z,0.00
2023-04-02T01:34:26.826Z,0.00
2023-04-02T01:35:25.930Z,0.00
2023-04-02T01:36:25.904Z,0.00
2023-04-02T01:37:25.847Z,0.00
2023-04-02T01:38:25.861Z,0.00
2023-04-02T01:39:25.844Z,0.00
2023-04-02T01:40:25.740Z,0.00
2023-04-02T01:41:25.699Z,0.00
2023-04-02T01:42:25.675Z,0.00
2023-04-02T01:43:25.636Z,0.00
2023-04-02T01:44:25.586Z,0.00
2023-04-02T01:45:25.620Z,0.00
2023-04-02T01:46:25.609Z,0.00
2023-04-02T01:47:25.577Z,0.00
2023-04-02T01:48:25.448Z,0.00
2023-04-02T01:49:25.424Z,0.00
2023-04-02T01:50:25.459Z,0.00
2023-04-02T01:51:25.401Z,0.00
2023-04-02T01:52:25.299Z,0.00
2023-04-02T01:53:25.271Z,0.00
2023-04-02T01:54:25.216Z,0.00
2023-04-02T01:55:25.255Z,0.00
2023-04-02T01:56:25.168Z,0.00
2023-04-02T01:57:25.168Z,0.00
2023-04-02T01:58:25.069Z,0.00
2023-04-02T01:59:25.036Z,0.00
2023-04-02T02:00:24.992Z,0.00
2023-04-02T02:01:25.082Z,0.00
2023-04-02T02:02:24.954Z,0.00
2023-04-02T02:03:24.926Z,0.00
2023-04-02T02:04:24.850Z,0.00
2023-04-02T02:05:24.816Z,0.00
2023-04-02T02:06:24.782Z,0.00
2023-04-02T02:07:24.799Z,0.00
2023-04-02T02:08:24.711Z,0.00
2023-04-02T02:09:24.814Z,0.00
2023-04-02T02:10:24.641Z,0.00
2023-04-02T02:11:24.593Z,0.00
2023-04-02T02:12:24.585Z,0.00
2023-04-02T02:13:24.603Z,0.00
2023-04-02T02:14:24.475Z,0.00
2023-04-02T02:15:24.456Z,0.00
2023-04-02T02:16:24.492Z,0.00
2023-04-02T02:17:24.478Z,0.00
2023-04-02T02:18:24.342Z,0.00
2023-04-02T02:19:24.367Z,0.00
2023-04-02T02:20:24.267Z,0.00
2023-04-02T02:21:24.305Z,0.00
2023-04-02T02:22:24.178Z,0.00
2023-04-02T02:23:24.155Z,0.00
2023-04-02T02:24:24.121Z,0.00
2023-04-02T02:25:24.088Z,0.00
2023-04-02T02:26:24.029Z,0.00
2023-04-02T02:27:24.108Z,0.00
2023-04-02T02:28:23.957Z,0.00
2023-04-02T02:29:23.938Z,0.00
2023-04-02T02:30:23.880Z,0.00
2023-04-02T02:31:23.916Z,0.00
2023-04-02T02:32:23.851Z,0.00
2023-04-02T02:33:23.842Z,0.00
2023-04-02T02:34:23.732Z,0.00
2023-04-02T02:35:23.704Z,0.00
2023-04-02T02:36:23.685Z,0.00
2023-04-02T02:37:23.627Z,0.00
2023-04-02T02:38:23.594Z,0.00
2023-04-02T02:39:23.607Z,0.00
2023-04-02T02:40:23.518Z,0.00
2023-04-02T02:41:23.543Z,0.00
2023-04-02T02:42:23.447Z,0.00
2023-04-02T02:43:23.398Z,0.00
2023-04-02T02:44:23.360Z,0.00
2023-04-02T02:45:23.405Z,0.00
2023-04-02T02:46:23.395Z,0.00
2023-04-02T02:47:23.305Z,0.00
2023-04-02T02:48:23.269Z,0.00
2023-04-02T02:49:23.185Z,0.00
2023-04-02T02:50:23.145Z,0.00
2023-04-02T02:51:23.157Z,0.00
2023-04-02T02:52:23.054Z,0.00
2023-04-02T02:53:23.034Z,0.00
2023-04-02T02:54:22.986Z,0.00
2023-04-02T02:55:22.955Z,0.00
2023-04-02T02:56:22.986Z,0.00
2023-04-02T02:57:22.934Z,0.00
2023-04-02T02:58:22.869Z,0.00
2023-04-02T02:59:22.799Z,0.00
2023-04-02T03:00:22.758Z,0.00
2023-04-02T03:01:22.858Z,0.00
2023-04-02T03:02:22.824Z,0.00
2023-04-02T03:03:22.701Z,0.00
2023-04-02T03:04:22.745Z,0.00
2023-04-02T03:05:22.588Z,0.00
2023-04-02T03:06:22.536Z,0.00
2023-04-02T03:07:22.506Z,0.00
2023-04-02T03:08:22.512Z,0.00
2023-04-02T03:09:22.473Z,0.00
2023-04-02T03:10:22.487Z,0.00
2023-04-02T03:11:22.363Z,0.00
2023-04-02T03:12:22.310Z,0.00
2023-04-02T03:13:22.282Z,0.00
2023-04-02T03:14:22.244Z,0.00
2023-04-02T03:15:22.245Z,0.00
2023-04-02T03:16:22.210Z,0.00
2023-04-02T03:17:22.142Z,0.00
2023-04-02T03:18:22.090Z,0.00
2023-04-02T03:19:22.051Z,0.00
2023-04-02T03:20:22.019Z,0.00
2023-04-02T03:21:22.040Z,0.00
2023-04-02T03:22:21.954Z,0.00
2023-04-02T03:23:21.918Z,0.00
2023-04-02T03:24:21.874Z,0.00
2023-04-02T03:25:21.837Z,0.00
2023-04-02T03:26:21.807Z,0.00
2023-04-02T03:27:21.820Z,0.00
2023-04-02T03:28:21.722Z,0.00
2023-04-02T03:29:21.687Z,0.00
2023-04-02T03:30:21.642Z,0.00
2023-04-02T03:31:21.680Z,0.00
2023-04-02T03:32:21.592Z,0.00
2023-04-02T03:33:21.592Z,0.00
2023-04-02T03:34:21.499Z,0.00
2023-04-02T03:35:21.460Z,0.00
2023-04-02T03:36:21.499Z,0.00
2023-04-02T03:37:21.396Z,0.00
2023-04-02T03:38:21.354Z,0.00
2023-04-02T03:39:21.386Z,0.00
2023-04-02T03:40:21.283Z,0.00
2023-04-02T03:41:21.266Z,0.00
2023-04-02T03:42:21.231Z,0.00
2023-04-02T03:43:21.160Z,0.00
2023-04-02T03:44:21.164Z,0.00
2023-04-02T03:45:21.167Z,0.00
2023-04-02T03:46:21.105Z,0.00
2023-04-02T03:47:21.121Z,0.00
2023-04-02T03:48:20.974Z,0.00
2023-04-02T03:49:20.948Z,0.00
2023-04-02T03:50:20.910Z,0.00
2023-04-02T03:51:20.943Z,0.00
2023-04-02T03:52:20.837Z,0.00
2023-04-02T03:53:20.803Z,0.00
2023-04-02T03:54:20.758Z,0.00
2023-04-02T03:55:20.744Z,0.00
2023-04-02T03:56:20.686Z,0.00
2023-04-02T03:57:20.753Z,0.00
2023-04-02T03:58:20.619Z,0.00
2023-04-02T03:59:20.581Z,0.00
2023-04-02T04:00:20.536Z,0.00
2023-04-02T04:01:20.492Z,0.00
2023-04-02T04:02:20.613Z,0.00
2023-04-02T04:03:20.431Z,0.00
2023-04-02T04:04:20.508Z,0.00
2023-04-02T04:05:20.361Z,0.00
2023-04-02T04:06:21.284Z,0.00
2023-04-02T04:07:20.330Z,0.00
2023-04-02T04:08:20.240Z,0.00
2023-04-02T04:09:20.213Z,0.00
2023-04-02T04:10:20.166Z,0.00
2023-04-02T04:11:20.198Z,0.00
2023-04-02T04:12:20.108Z,0.00
2023-04-02T04:13:20.114Z,0.00
2023-04-02T04:14:20.024Z,0.00
2023-04-02T04:15:19.989Z,4.00
2023-04-02T04:16:20.017Z,0.00
2023-04-02T04:17:19.902Z,0.00
2023-04-02T04:18:19.883Z,4.00
2023-04-02T04:19:19.876Z,0.00
2023-04-02T04:20:19.784Z,4.00
2023-04-02T04:21:19.763Z,8.00
2023-04-02T04:22:19.797Z,4.00
2023-04-02T04:23:19.680Z,8.00
2023-04-02T04:29:03.483Z,12.00
2023-04-02T04:29:55.755Z,16.00
2023-04-02T04:30:55.712Z,16.00
2023-04-02T04:31:55.953Z,20.00
2023-04-02T04:32:55.654Z,20.00
2023-04-02T04:33:55.609Z,24.00
2023-04-02T04:34:55.619Z,28.00
2023-04-02T04:35:55.571Z,32.00
2023-04-02T04:36:55.501Z,36.00
2023-04-02T04:37:55.458Z,44.00
2023-04-02T04:38:55.430Z,48.00
2023-04-02T04:39:55.377Z,48.00
2023-04-02T04:40:55.440Z,60.00
2023-04-02T04:41:55.311Z,64.00
2023-04-02T04:42:55.261Z,64.00
2023-04-02T04:43:55.231Z,64.00
2023-04-02T04:44:55.201Z,68.00
2023-04-02T04:45:55.227Z,76.00
2023-04-02T04:46:55.125Z,76.00
2023-04-02T04:47:55.131Z,80.00
2023-04-02T04:48:55.044Z,92.00
2023-04-02T04:49:55.009Z,104.00
2023-04-02T04:50:55.038Z,104.00
2023-04-02T04:51:54.936Z,116.00
2023-04-02T04:52:54.902Z,116.00
2023-04-02T04:53:54.856Z,120.00
2023-04-02T04:54:54.834Z,132.00
2023-04-02T04:55:54.785Z,148.00
2023-04-02T04:56:54.840Z,160.00
2023-04-02T04:57:54.712Z,168.00
2023-04-02T04:58:54.677Z,188.00
2023-04-02T04:59:54.633Z,188.00
2023-04-02T05:00:54.601Z,192.00
2023-04-02T05:01:54.636Z,192.00
2023-04-02T05:02:56.397Z,196.00
2023-04-02T05:03:54.480Z,216.00
2023-04-02T05:04:54.541Z,220.00
2023-04-02T05:05:54.432Z,212.00
2023-04-02T05:06:54.370Z,228.00
2023-04-02T05:07:54.325Z,228.00
2023-04-02T05:08:54.349Z,232.00
2023-04-02T05:09:54.269Z,252.00
2023-04-02T05:10:54.227Z,248.00
2023-04-02T05:11:54.193Z,256.00
2023-04-02T05:12:54.154Z,264.00
2023-04-02T05:13:54.110Z,244.00
2023-04-02T05:14:54.145Z,252.00
2023-04-02T05:15:54.046Z,284.00
2023-04-02T05:16:54.007Z,312.00
2023-04-02T05:17:54.029Z,312.00
2023-04-02T05:18:53.914Z,320.00
2023-04-02T05:19:53.890Z,320.00
2023-04-02T05:20:53.895Z,312.00
2023-04-02T05:21:53.810Z,332.00
2023-04-02T05:22:53.778Z,344.00
2023-04-02T05:23:53.742Z,368.00
2023-04-02T05:24:53.705Z,372.00
2023-04-02T05:25:53.655Z,372.00
2023-04-02T05:26:53.711Z,372.00
2023-04-02T05:27:53.603Z,404.00
2023-04-02T05:28:53.550Z,440.00
2023-04-02T05:29:53.504Z,480.00
2023-04-02T05:30:53.480Z,532.00
2023-04-02T05:31:53.431Z,560.00
2023-04-02T05:32:53.474Z,612.00
2023-04-02T05:33:53.360Z,728.00
2023-04-02T05:34:53.334Z,704.00
2023-04-02T05:35:53.308Z,616.00
2023-04-02T05:36:53.259Z,580.00
2023-04-02T05:37:53.208Z,532.00
2023-04-02T05:38:53.250Z,524.00
2023-04-02T05:39:53.138Z,524.00
2023-04-02T05:40:53.106Z,532.00
2023-04-02T05:41:53.065Z,564.00
2023-04-02T05:42:53.071Z,604.00
2023-04-02T05:43:52.998Z,596.00
2023-04-02T05:44:53.042Z,676.00
2023-04-02T05:45:52.936Z,760.00
2023-04-02T05:46:52.978Z,764.00
2023-04-02T05:47:52.889Z,732.00
2023-04-02T05:48:52.820Z,740.00
2023-04-02T05:49:52.791Z,772.00
2023-04-02T05:50:52.812Z,840.00
2023-04-02T05:51:52.697Z,824.00
2023-04-02T05:52:52.668Z,832.00
2023-04-02T05:53:52.633Z,812.00
2023-04-02T05:54:52.591Z,768.00
2023-04-02T05:55:52.545Z,784.00
2023-04-02T05:56:52.604Z,788.00
2023-04-02T05:58:10.391Z,864.00
2023-04-02T05:58:52.538Z,916.00
2023-04-02T05:59:52.403Z,940.00
2023-04-02T06:00:52.363Z,952.00
2023-04-02T06:01:52.360Z,864.00
2023-04-02T06:02:52.431Z,840.00
2023-04-02T06:03:52.307Z,876.00
2023-04-02T06:04:52.223Z,992.00
2023-04-02T06:05:52.201Z,1408.00
2023-04-02T06:06:52.162Z,1796.00
2023-04-02T06:07:52.173Z,1952.00
2023-04-02T06:08:52.077Z,1740.00
2023-04-02T06:09:52.025Z,1616.00
2023-04-02T06:10:51.998Z,1640.00
2023-04-02T06:11:51.953Z,1644.00
2023-04-02T06:12:51.980Z,1552.00
2023-04-02T06:13:51.895Z,1620.00
2023-04-02T06:14:51.846Z,1856.00
2023-04-02T06:15:51.837Z,2076.00
2023-04-02T06:16:51.828Z,1900.00
2023-04-02T06:17:51.757Z,1888.00
2023-04-02T06:18:51.758Z,1772.00
2023-04-02T06:19:51.671Z,1560.00
2023-04-02T06:20:51.691Z,1764.00
2023-04-02T06:21:51.594Z,1776.00
2023-04-02T06:22:51.559Z,1672.00
2023-04-02T06:23:51.528Z,1700.00
2023-04-02T06:24:51.493Z,1904.00
2023-04-02T06:25:52.779Z,1884.00
2023-04-02T06:26:51.410Z,2280.00
2023-04-02T06:27:51.371Z,2224.00
2023-04-02T06:28:51.358Z,2056.00
2023-04-02T06:29:51.295Z,1876.00
2023-04-02T06:30:51.279Z,1796.00
2023-04-02T06:31:51.281Z,1832.00
2023-04-02T06:32:51.195Z,1976.00
2023-04-02T06:33:51.173Z,1976.00
2023-04-02T06:34:51.125Z,1868.00
2023-04-02T06:35:51.105Z,2024.00
2023-04-02T06:36:51.037Z,2448.00
2023-04-02T06:37:51.056Z,2248.00
2023-04-02T06:38:50.975Z,2264.00
2023-04-02T06:39:50.932Z,2288.00
2023-04-02T06:40:50.918Z,2140.00
2023-04-02T06:41:50.871Z,1964.00
2023-04-02T06:42:50.830Z,2164.00
2023-04-02T06:43:50.871Z,2708.00
2023-04-02T06:44:50.756Z,2516.00
2023-04-02T06:45:50.746Z,2372.00
2023-04-02T06:46:52.519Z,2368.00
2023-04-02T06:47:50.679Z,2560.00
2023-04-02T06:48:50.672Z,2980.00
2023-04-02T06:49:50.581Z,3168.00
2023-04-02T06:50:50.538Z,3396.00
2023-04-02T06:51:50.507Z,3596.00
2023-04-02T06:52:50.464Z,3836.00
2023-04-02T06:53:50.440Z,4172.00
2023-04-02T06:54:50.504Z,4736.00
2023-04-02T06:55:50.354Z,5768.00
2023-04-02T06:56:50.324Z,5200.00
2023-04-02T06:57:50.278Z,4288.00
2023-04-02T06:58:50.248Z,4608.00
2023-04-02T06:59:50.265Z,5160.00
2023-04-02T07:00:50.194Z,5732.00
2023-04-02T07:01:50.165Z,7488.00
2023-04-02T07:02:50.131Z,9740.00
2023-04-02T07:03:50.086Z,9364.00
2023-04-02T07:04:50.099Z,9308.00
2023-04-02T07:05:50.047Z,9156.00
2023-04-02T07:06:49.950Z,8500.00
2023-04-02T07:07:49.906Z,9340.00
2023-04-02T07:08:49.898Z,8492.00
2023-04-02T07:09:49.842Z,7432.00
2023-04-02T07:10:49.816Z,7652.00
2023-04-02T07:11:49.821Z,6856.00
2023-04-02T07:12:49.752Z,6600.00
2023-04-02T07:13:49.709Z,7752.00
2023-04-02T07:14:49.663Z,8332.00
2023-04-02T07:15:49.641Z,9360.00
2023-04-02T07:16:49.648Z,9268.00
2023-04-02T07:17:49.626Z,7164.00
2023-04-02T07:18:49.516Z,5712.00
2023-04-02T07:19:49.597Z,5032.00
2023-04-02T07:20:49.444Z,4640.00
2023-04-02T07:21:49.411Z,4368.00
2023-04-02T07:22:49.447Z,4060.00
2023-04-02T07:23:49.361Z,4060.00
2023-04-02T07:24:49.309Z,3852.00
2023-04-02T07:25:49.284Z,3620.00
2023-04-02T07:26:49.221Z,3760.00
2023-04-02T07:27:49.198Z,3812.00
2023-04-02T07:28:49.221Z,3472.00
2023-04-02T07:29:49.115Z,3524.00
2023-04-02T07:30:49.086Z,3528.00
2023-04-02T07:31:49.201Z,3576.00
2023-04-02T07:32:49.027Z,3712.00
2023-04-02T07:33:49.095Z,3960.00
2023-04-02T07:34:48.960Z,4164.00
2023-04-02T07:35:48.931Z,4396.00
2023-04-02T07:36:48.872Z,4404.00
2023-04-02T07:37:48.834Z,4492.00
2023-04-02T07:38:48.799Z,4624.00
2023-04-02T07:39:48.816Z,4580.00
2023-04-02T07:40:48.731Z,4740.00
2023-04-02T07:41:48.694Z,4808.00
2023-04-02T07:42:48.660Z,5096.00
2023-04-02T07:43:48.617Z,5232.00
2023-04-02T07:44:48.648Z,4860.00
2023-04-02T07:45:48.546Z,4700.00
2023-04-02T07:46:48.625Z,4672.00
2023-04-02T07:47:48.492Z,4816.00
2023-04-02T07:48:48.432Z,5028.00
2023-04-02T07:49:48.409Z,5512.00
2023-04-02T07:50:48.432Z,5652.00
2023-04-02T07:51:48.332Z,5580.00
2023-04-02T07:52:48.295Z,5596.00
2023-04-02T07:53:48.268Z,5740.00
2023-04-02T07:54:48.245Z,6212.00
2023-04-02T07:55:48.189Z,6936.00
2023-04-02T07:56:48.271Z,7300.00
2023-04-02T07:57:48.116Z,7192.00
2023-04-02T07:58:48.097Z,6780.00
2023-04-02T07:59:48.131Z,7028.00
2023-04-02T08:00:48.002Z,7252.00
2023-04-02T08:01:48.085Z,7768.00
2023-04-02T08:02:47.988Z,7992.00
2023-04-02T08:03:48.050Z,7332.00
2023-04-02T08:04:47.862Z,6536.00
2023-04-02T08:05:47.820Z,5832.00
2023-04-02T08:06:47.852Z,5748.00
2023-04-02T08:07:47.776Z,6440.00
2023-04-02T08:08:47.727Z,6348.00
2023-04-02T08:09:47.678Z,6020.00
2023-04-02T08:10:47.658Z,6420.00
2023-04-02T08:11:47.630Z,7140.00
2023-04-02T08:12:47.656Z,7112.00
2023-04-02T08:13:47.548Z,6068.00
2023-04-02T08:14:47.507Z,5836.00
2023-04-02T08:15:47.490Z,6264.00
2023-04-02T08:16:47.491Z,7064.00
2023-04-02T08:17:47.408Z,7636.00
2023-04-02T08:18:47.447Z,7408.00
2023-04-02T08:19:54.819Z,7324.00
2023-04-02T08:20:47.327Z,7148.00
2023-04-02T08:21:47.262Z,7668.00
2023-04-02T08:22:47.233Z,8760.00
2023-04-02T08:23:47.191Z,9872.00
2023-04-02T08:24:47.215Z,9032.00
2023-04-02T08:25:47.113Z,8660.00
2023-04-02T08:26:47.082Z,8556.00
2023-04-02T08:27:47.059Z,9316.00
2023-04-02T08:28:47.027Z,10672.00
2023-04-02T08:29:46.980Z,10704.00
2023-04-02T08:30:47.058Z,9956.00
2023-04-02T08:31:46.923Z,10532.00
2023-04-02T08:32:46.885Z,11320.00
2023-04-02T08:33:46.845Z,11996.00
2023-04-02T08:34:46.797Z,12392.00
2023-04-02T08:35:46.891Z,13020.00
2023-04-02T08:36:46.780Z,12824.00
2023-04-02T08:37:46.692Z,12732.00
2023-04-02T08:38:46.662Z,12200.00
2023-04-02T08:39:46.628Z,11804.00
2023-04-02T08:40:46.594Z,12372.00
2023-04-02T08:41:46.547Z,11780.00
2023-04-02T08:42:46.582Z,10940.00
2023-04-02T08:43:46.481Z,10176.00
2023-04-02T08:44:46.457Z,9428.00
2023-04-02T08:45:46.465Z,8624.00
2023-04-02T08:46:46.390Z,8048.00
2023-04-02T08:47:46.518Z,7996.00
2023-04-02T08:48:46.307Z,8512.00
2023-04-02T08:49:46.265Z,8920.00
2023-04-02T08:50:46.235Z,9896.00
2023-04-02T08:51:46.204Z,9992.00
2023-04-02T08:52:46.152Z,9656.00
2023-04-02T08:53:46.188Z,9592.00
2023-04-02T08:54:46.093Z,9812.00
2023-04-02T08:55:46.056Z,10044.00
2023-04-02T08:56:46.025Z,10224.00
2023-04-02T08:57:45.997Z,11232.00
2023-04-02T08:58:45.960Z,12016.00
2023-04-02T08:59:46.004Z,11828.00
2023-04-02T09:00:45.874Z,12032.00
2023-04-02T09:01:45.881Z,12656.00
2023-04-02T09:02:45.932Z,12864.00
2023-04-02T09:03:45.791Z,12340.00
2023-04-02T09:04:45.807Z,12540.00
2023-04-02T09:05:45.760Z,12000.00
2023-04-02T09:06:45.677Z,10888.00
2023-04-02T09:07:45.640Z,10548.00
2023-04-02T09:08:45.633Z,10096.00
2023-04-02T09:09:45.583Z,9776.00
2023-04-02T09:10:45.537Z,10824.00
2023-04-02T09:11:45.807Z,11468.00
2023-04-02T09:12:45.464Z,12036.00
2023-04-02T09:13:45.447Z,12384.00
2023-04-02T09:14:45.407Z,12508.00
2023-04-02T09:15:45.428Z,12792.00
2023-04-02T09:16:45.324Z,12496.00
2023-04-02T09:17:53.610Z,12100.00
2023-04-02T09:18:45.409Z,11908.00
2023-04-02T09:19:45.221Z,10344.00
2023-04-02T09:20:45.174Z,8808.00
2023-04-02T09:21:45.155Z,6936.00
2023-04-02T09:22:45.131Z,5396.00
2023-04-02T09:23:45.249Z,4288.00
2023-04-02T09:24:45.040Z,4236.00
2023-04-02T09:25:54.089Z,4236.00
2023-04-02T09:26:44.994Z,4328.00
2023-04-02T09:27:44.952Z,4444.00
2023-04-02T09:28:44.967Z,4556.00
2023-04-02T09:29:44.909Z,4456.00
2023-04-02T09:30:44.830Z,4516.00
2023-04-02T09:31:44.813Z,4520.00
2023-04-02T09:32:44.872Z,4616.00
2023-04-02T09:33:44.741Z,4812.00
2023-04-02T09:34:44.695Z,5000.00
2023-04-02T09:35:44.731Z,5320.00
2023-04-02T09:36:44.634Z,5600.00
2023-04-02T09:37:44.589Z,6120.00
2023-04-02T09:38:44.551Z,7076.00
2023-04-02T09:39:44.523Z,8608.00
2023-04-02T09:40:44.498Z,9256.00
2023-04-02T09:41:48.225Z,10628.00
2023-04-02T09:42:44.436Z,13212.00
2023-04-02T09:43:44.383Z,14372.00
2023-04-02T09:44:44.340Z,13320.00
2023-04-02T09:45:44.313Z,13888.00
2023-04-02T09:46:44.387Z,14740.00
2023-04-02T09:47:44.346Z,15232.00
2023-04-02T09:48:44.308Z,15636.00
2023-04-02T09:49:44.169Z,14996.00
2023-04-02T09:50:44.132Z,13344.00
2023-04-02T09:51:44.100Z,13164.00
2023-04-02T09:52:44.056Z,14548.00
2023-04-02T09:53:44.087Z,13756.00
2023-04-02T09:54:44.023Z,13812.00
2023-04-02T09:55:43.951Z,13516.00
2023-04-02T09:56:43.920Z,13108.00
2023-04-02T09:57:43.891Z,12560.00
2023-04-02T09:58:43.858Z,11104.00
2023-04-02T09:59:43.921Z,9468.00
2023-04-02T10:00:44.039Z,8272.00
2023-04-02T10:01:43.790Z,9108.00
2023-04-02T10:02:43.780Z,9636.00
2023-04-02T10:03:43.755Z,11388.00
2023-04-02T10:04:43.708Z,12072.00
2023-04-02T10:05:43.898Z,12352.00
2023-04-02T10:06:43.597Z,12160.00
2023-04-02T10:07:43.553Z,9316.00
2023-04-02T10:08:43.552Z,7312.00
2023-04-02T10:09:43.477Z,5764.00
2023-04-02T10:10:43.461Z,5584.00
2023-04-02T10:11:46.681Z,6024.00
2023-04-02T10:12:43.375Z,6824.00
2023-04-02T10:13:43.359Z,7856.00
2023-04-02T10:14:43.365Z,8740.00
2023-04-02T10:15:43.332Z,8740.00
2023-04-02T10:16:43.326Z,9732.00
2023-04-02T10:17:43.284Z,11480.00
2023-04-02T10:18:43.238Z,12548.00
2023-04-02T10:19:43.156Z,14596.00
2023-04-02T10:20:50.967Z,15852.00
2023-04-02T10:21:43.094Z,15928.00
2023-04-02T10:22:43.044Z,15660.00
2023-04-02T10:23:43.083Z,15588.00
2023-04-02T10:24:42.962Z,14912.00
2023-04-02T10:25:42.936Z,13392.00
2023-04-02T10:26:42.906Z,12452.00
2023-04-02T10:27:42.874Z,12568.00
2023-04-02T10:28:42.831Z,12896.00
2023-04-02T10:29:42.846Z,12636.00
2023-04-02T10:30:42.780Z,12260.00
2023-04-02T10:31:42.738Z,11240.00
2023-04-02T10:32:42.731Z,10504.00
2023-04-02T10:33:42.752Z,10024.00
2023-04-02T10:34:43.223Z,8892.00
2023-04-02T10:35:42.686Z,8224.00
2023-04-02T10:36:42.565Z,7732.00
2023-04-02T10:37:42.539Z,7396.00
2023-04-02T10:38:42.519Z,6568.00
2023-04-02T10:39:42.462Z,6260.00
2023-04-02T10:40:42.436Z,6516.00
2023-04-02T10:41:42.440Z,7328.00
2023-04-02T10:42:42.351Z,8008.00
2023-04-02T10:43:42.330Z,8256.00
2023-04-02T10:44:42.295Z,7272.00
2023-04-02T10:45:42.285Z,6940.00
2023-04-02T10:46:42.342Z,6492.00
2023-04-02T10:47:42.322Z,5824.00
2023-04-02T10:48:42.171Z,5848.00
2023-04-02T10:49:42.170Z,6256.00
2023-04-02T10:50:42.164Z,6868.00
2023-04-02T10:51:42.052Z,7952.00
2023-04-02T10:52:42.022Z,9672.00
2023-04-02T10:53:41.975Z,12044.00
2023-04-02T10:54:41.962Z,13548.00
2023-04-02T10:55:41.982Z,13556.00
2023-04-02T10:56:50.634Z,13448.00
2023-04-02T10:57:42.048Z,13400.00
2023-04-02T10:58:41.824Z,12556.00
2023-04-02T10:59:41.779Z,10688.00
2023-04-02T11:00:41.742Z,8080.00
2023-04-02T11:01:41.807Z,5668.00
2023-04-02T11:02:41.708Z,4604.00
2023-04-02T11:03:41.871Z,4952.00
2023-04-02T11:04:41.600Z,5504.00
2023-04-02T11:05:41.565Z,6592.00
2023-04-02T11:06:41.594Z,8236.00
2023-04-02T11:07:41.489Z,9932.00
2023-04-02T11:08:41.465Z,11284.00
2023-04-02T11:09:41.434Z,11480.00
2023-04-02T11:10:41.393Z,12412.00
2023-04-02T11:11:41.356Z,14076.00
2023-04-02T11:12:42.060Z,14060.00
2023-04-02T11:13:41.287Z,14400.00
2023-04-02T11:14:41.260Z,14584.00
2023-04-02T11:15:41.277Z,15864.00
2023-04-02T11:16:44.013Z,16240.00
2023-04-02T11:17:41.167Z,15768.00
2023-04-02T11:18:41.186Z,14908.00
2023-04-02T11:19:41.085Z,13932.00
2023-04-02T11:20:41.065Z,13908.00
2023-04-02T11:21:54.906Z,12996.00
2023-04-02T11:22:40.980Z,12300.00
2023-04-02T11:23:40.946Z,12536.00
2023-04-02T11:24:40.982Z,12776.00
2023-04-02T11:25:40.879Z,13260.00
2023-04-02T11:26:40.841Z,13036.00
2023-04-02T11:27:40.810Z,12840.00
2023-04-02T11:28:40.774Z,12856.00
2023-04-02T11:29:40.780Z,12800.00
2023-04-02T11:30:40.770Z,12796.00
2023-04-02T11:31:40.785Z,12700.00
2023-04-02T11:32:40.702Z,12376.00
2023-04-02T11:33:43.408Z,12392.00
2023-04-02T11:34:40.587Z,13428.00
2023-04-02T11:35:40.668Z,13532.00
2023-04-02T11:36:40.577Z,13372.00
2023-04-02T11:37:40.480Z,12052.00
2023-04-02T11:38:40.456Z,11604.00
2023-04-02T11:39:40.422Z,11396.00
2023-04-02T11:40:40.408Z,11128.00
2023-04-02T11:41:40.340Z,10780.00
2023-04-02T11:42:40.414Z,10920.00
2023-04-02T11:43:40.290Z,11596.00
2023-04-02T11:44:40.252Z,12596.00
2023-04-02T11:45:52.014Z,11688.00
2023-04-02T11:46:40.226Z,11188.00
2023-04-02T11:47:40.204Z,10592.00
2023-04-02T11:48:40.173Z,9056.00
2023-04-02T11:49:40.159Z,7632.00
2023-04-02T11:50:40.038Z,5864.00
2023-04-02T11:51:40.019Z,4596.00
2023-04-02T11:52:39.981Z,4008.00
2023-04-02T11:53:39.963Z,3856.00
2023-04-02T11:54:39.960Z,3884.00
2023-04-02T11:55:40.063Z,3864.00
2023-04-02T11:56:39.845Z,4184.00
2023-04-02T11:57:39.933Z,4112.00
2023-04-02T11:58:39.828Z,4268.00
2023-04-02T11:59:39.760Z,4392.00
2023-04-02T12:00:39.765Z,4628.00
2023-04-02T12:01:39.713Z,5088.00
2023-04-02T12:02:39.743Z,5940.00
2023-04-02T12:03:39.677Z,6720.00
2023-04-02T12:04:39.601Z,5772.00
2023-04-02T12:05:39.612Z,5256.00
2023-04-02T12:06:39.516Z,5760.00
2023-04-02T12:07:39.473Z,6328.00
2023-04-02T12:08:50.687Z,5996.00
2023-04-02T12:09:39.392Z,5864.00
2023-04-02T12:10:39.392Z,6556.00
2023-04-02T12:11:39.393Z,7560.00
2023-04-02T12:12:39.328Z,8364.00
2023-04-02T12:13:39.327Z,9436.00
2023-04-02T12:14:39.217Z,10684.00
2023-04-02T12:15:39.197Z,11516.00
2023-04-02T12:16:39.200Z,12876.00
2023-04-02T12:17:39.155Z,14156.00
2023-04-02T12:18:39.160Z,15200.00
2023-04-02T12:19:39.060Z,15028.00
2023-04-02T12:20:39.027Z,14448.00
2023-04-02T12:21:38.990Z,14440.00
2023-04-02T12:22:38.962Z,13576.00
2023-04-02T12:23:38.938Z,13116.00
2023-04-02T12:24:38.937Z,13144.00
2023-04-02T12:25:38.850Z,12352.00
2023-04-02T12:26:38.828Z,12048.00
2023-04-02T12:27:38.804Z,12396.00
2023-04-02T12:28:38.762Z,12404.00
2023-04-02T12:29:38.727Z,12208.00
2023-04-02T12:30:38.829Z,12208.00
2023-04-02T12:31:38.648Z,12392.00
2023-04-02T12:32:38.621Z,11716.00